sensor_id;sensor_type;location;lat;lon;timestamp;pressure;altitude;pressure_sealevel;temperature;humidity
18527;BME280;9393;42.158;24.748;2023-02-21T00:03:12;99855.47;;;12.44;38.02
18527;BME280;9393;42.158;24.748;2023-02-21T00:06:35;99854.34;;;12.46;38.02
18527;BME280;9393;42.158;24.748;2023-02-21T00:09:56;99853.59;;;12.36;37.86
18527;BME280;9393;42.158;24.748;2023-02-21T00:13:17;99844.78;;;12.55;37.52
18527;BME280;9393;42.158;24.748;2023-02-21T00:16:38;99850.66;;;12.39;37.54
18527;BME280;9393;42.158;24.748;2023-02-21T00:19:59;99853.81;;;12.43;37.45
18527;BME280;9393;42.158;24.748;2023-02-21T00:23:22;99855.56;;;12.52;37.47
18527;BME280;9393;42.158;24.748;2023-02-21T00:26:43;99853.00;;;12.42;37.66
18527;BME280;9393;42.158;24.748;2023-02-21T00:30:05;99851.59;;;12.48;37.70
18527;BME280;9393;42.158;24.748;2023-02-21T00:33:27;99840.31;;;12.47;37.85
18527;BME280;9393;42.158;24.748;2023-02-21T00:36:48;99834.16;;;12.39;37.81
18527;BME280;9393;42.158;24.748;2023-02-21T00:40:13;99821.47;;;12.17;37.88
18527;BME280;9393;42.158;24.748;2023-02-21T00:43:35;99830.69;;;12.48;37.43
18527;BME280;9393;42.158;24.748;2023-02-21T00:46:56;99832.50;;;12.38;37.33
18527;BME280;9393;42.158;24.748;2023-02-21T00:50:17;99826.03;;;12.59;36.86
18527;BME280;9393;42.158;24.748;2023-02-21T00:53:38;99813.78;;;12.60;36.90
18527;BME280;9393;42.158;24.748;2023-02-21T00:57:00;99809.28;;;12.52;36.68
18527;BME280;9393;42.158;24.748;2023-02-21T01:00:23;99804.59;;;12.74;36.37
18527;BME280;9393;42.158;24.748;2023-02-21T01:03:44;99797.72;;;12.73;36.40
18527;BME280;9393;42.158;24.748;2023-02-21T01:07:05;99792.78;;;12.70;36.47
18527;BME280;9393;42.158;24.748;2023-02-21T01:10:27;99787.63;;;12.60;36.37
18527;BME280;9393;42.158;24.748;2023-02-21T01:13:49;99781.13;;;12.82;36.27
18527;BME280;9393;42.158;24.748;2023-02-21T01:17:10;99777.09;;;12.87;36.09
18527;BME280;9393;42.158;24.748;2023-02-21T01:20:31;99772.25;;;12.92;35.83
18527;BME280;9393;42.158;24.748;2023-02-21T01:23:52;99754.78;;;12.83;36.01
18527;BME280;9393;42.158;24.748;2023-02-21T01:27:13;99755.53;;;12.93;35.96
18527;BME280;9393;42.158;24.748;2023-02-21T01:30:36;99745.31;;;12.82;36.32
18527;BME280;9393;42.158;24.748;2023-02-21T01:33:57;99743.28;;;12.94;36.09
18527;BME280;9393;42.158;24.748;2023-02-21T01:37:18;99740.53;;;12.78;36.43
18527;BME280;9393;42.158;24.748;2023-02-21T01:40:39;99732.91;;;12.84;36.51
18527;BME280;9393;42.158;24.748;2023-02-21T01:44:02;99744.19;;;12.67;36.80
18527;BME280;9393;42.158;24.748;2023-02-21T01:47:25;99743.88;;;12.52;37.28
18527;BME280;9393;42.158;24.748;2023-02-21T01:50:47;99742.25;;;12.69;37.07
18527;BME280;9393;42.158;24.748;2023-02-21T01:54:10;99738.22;;;12.57;37.33
18527;BME280;9393;42.158;24.748;2023-02-21T01:57:32;99735.16;;;12.44;37.70
18527;BME280;9393;42.158;24.748;2023-02-21T02:00:54;99735.38;;;12.50;37.58
18527;BME280;9393;42.158;24.748;2023-02-21T02:04:17;99734.84;;;12.47;37.51
18527;BME280;9393;42.158;24.748;2023-02-21T02:07:39;99716.47;;;12.56;37.48
18527;BME280;9393;42.158;24.748;2023-02-21T02:11:03;99724.09;;;12.50;37.52
18527;BME280;9393;42.158;24.748;2023-02-21T02:14:45;99709.50;;;12.30;37.92
18527;BME280;9393;42.158;24.748;2023-02-21T02:18:02;99701.00;;;12.45;37.58
18527;BME280;9393;42.158;24.748;2023-02-21T02:24:59;99692.56;;;12.34;37.61
18527;BME280;9393;42.158;24.748;2023-02-21T02:28:22;99689.78;;;12.18;37.92
18527;BME280;9393;42.158;24.748;2023-02-21T02:31:41;99685.31;;;12.10;37.95
18527;BME280;9393;42.158;24.748;2023-02-21T02:34:54;99685.03;;;12.03;38.00
18527;BME280;9393;42.158;24.748;2023-02-21T02:38:06;99682.44;;;12.21;37.63
18527;BME280;9393;42.158;24.748;2023-02-21T02:41:25;99680.50;;;12.05;37.60
18527;BME280;9393;42.158;24.748;2023-02-21T02:44:37;99685.47;;;12.26;37.30
18527;BME280;9393;42.158;24.748;2023-02-21T02:47:44;99676.69;;;12.18;37.08
18527;BME280;9393;42.158;24.748;2023-02-21T02:50:53;99675.34;;;12.31;37.02
18527;BME280;9393;42.158;24.748;2023-02-21T02:53:58;99669.78;;;12.26;37.14
18527;BME280;9393;42.158;24.748;2023-02-21T02:57:04;99662.97;;;12.33;36.87
18527;BME280;9393;42.158;24.748;2023-02-21T03:03:40;99665.13;;;12.20;37.04
18527;BME280;9393;42.158;24.748;2023-02-21T03:06:55;99654.69;;;12.20;36.86
18527;BME280;9393;42.158;24.748;2023-02-21T03:10:11;99658.25;;;12.19;37.17
18527;BME280;9393;42.158;24.748;2023-02-21T03:13:20;99652.81;;;12.30;36.98
18527;BME280;9393;42.158;24.748;2023-02-21T03:16:26;99654.66;;;12.38;37.11
18527;BME280;9393;42.158;24.748;2023-02-21T03:19:34;99665.72;;;12.32;37.17
18527;BME280;9393;42.158;24.748;2023-02-21T03:22:42;99660.41;;;12.41;37.13
18527;BME280;9393;42.158;24.748;2023-02-21T03:25:50;99659.97;;;12.28;37.36
18527;BME280;9393;42.158;24.748;2023-02-21T03:28:55;99663.19;;;12.40;37.14
18527;BME280;9393;42.158;24.748;2023-02-21T03:32:02;99673.13;;;12.36;37.39
18527;BME280;9393;42.158;24.748;2023-02-21T03:35:12;99667.88;;;12.54;37.21
18527;BME280;9393;42.158;24.748;2023-02-21T03:38:19;99669.69;;;12.53;37.14
18527;BME280;9393;42.158;24.748;2023-02-21T03:41:24;99672.31;;;12.36;37.36
18527;BME280;9393;42.158;24.748;2023-02-21T03:44:27;99676.25;;;12.40;37.11
18527;BME280;9393;42.158;24.748;2023-02-21T03:47:32;99675.81;;;12.44;37.05
18527;BME280;9393;42.158;24.748;2023-02-21T03:50:37;99673.72;;;12.48;36.77
18527;BME280;9393;42.158;24.748;2023-02-21T03:53:43;99694.63;;;12.12;37.52
18527;BME280;9393;42.158;24.748;2023-02-21T03:56:47;99690.19;;;11.95;37.74
18527;BME280;9393;42.158;24.748;2023-02-21T03:59:58;99691.84;;;12.14;37.74
18527;BME280;9393;42.158;24.748;2023-02-21T04:03:03;99688.50;;;12.22;37.61
18527;BME280;9393;42.158;24.748;2023-02-21T04:06:15;99683.88;;;12.33;37.45
18527;BME280;9393;42.158;24.748;2023-02-21T04:09:22;99672.22;;;12.28;37.73
18527;BME280;9393;42.158;24.748;2023-02-21T04:12:27;99676.91;;;12.24;37.59
18527;BME280;9393;42.158;24.748;2023-02-21T04:15:32;99670.59;;;12.27;37.46
18527;BME280;9393;42.158;24.748;2023-02-21T04:18:36;99670.94;;;12.32;37.83
18527;BME280;9393;42.158;24.748;2023-02-21T04:21:42;99670.50;;;12.36;37.60
18527;BME280;9393;42.158;24.748;2023-02-21T04:24:48;99673.94;;;12.37;37.58
18527;BME280;9393;42.158;24.748;2023-02-21T04:27:53;99674.63;;;12.39;37.34
18527;BME280;9393;42.158;24.748;2023-02-21T04:30:58;99677.22;;;12.21;37.79
18527;BME280;9393;42.158;24.748;2023-02-21T04:34:02;99679.09;;;12.29;37.64
18527;BME280;9393;42.158;24.748;2023-02-21T04:37:15;99684.31;;;12.29;37.70
18527;BME280;9393;42.158;24.748;2023-02-21T04:40:21;99678.34;;;12.19;37.86
18527;BME280;9393;42.158;24.748;2023-02-21T04:43:25;99691.41;;;12.19;37.84
18527;BME280;9393;42.158;24.748;2023-02-21T04:46:29;99694.28;;;12.43;37.46
18527;BME280;9393;42.158;24.748;2023-02-21T04:49:33;99699.63;;;12.41;37.46
18527;BME280;9393;42.158;24.748;2023-02-21T04:52:36;99704.13;;;12.49;37.29
18527;BME280;9393;42.158;24.748;2023-02-21T04:55:43;99710.03;;;12.33;37.27
18527;BME280;9393;42.158;24.748;2023-02-21T04:58:47;99701.88;;;12.19;37.40
18527;BME280;9393;42.158;24.748;2023-02-21T05:01:51;99703.91;;;12.25;37.39
18527;BME280;9393;42.158;24.748;2023-02-21T05:04:55;99698.13;;;12.21;37.34
18527;BME280;9393;42.158;24.748;2023-02-21T05:07:58;99700.63;;;12.23;37.18
18527;BME280;9393;42.158;24.748;2023-02-21T05:11:04;99696.38;;;12.39;36.91
18527;BME280;9393;42.158;24.748;2023-02-21T05:14:09;99703.47;;;12.29;37.03
18527;BME280;9393;42.158;24.748;2023-02-21T05:17:13;99707.03;;;12.28;37.03
18527;BME280;9393;42.158;24.748;2023-02-21T05:20:18;99710.97;;;12.14;37.20
18527;BME280;9393;42.158;24.748;2023-02-21T05:23:22;99710.47;;;12.29;37.13
18527;BME280;9393;42.158;24.748;2023-02-21T05:26:37;99713.78;;;12.31;37.09
18527;BME280;9393;42.158;24.748;2023-02-21T05:29:41;99722.72;;;12.28;37.11
18527;BME280;9393;42.158;24.748;2023-02-21T05:32:45;99720.63;;;12.32;37.20
18527;BME280;9393;42.158;24.748;2023-02-21T05:35:49;99714.13;;;12.18;37.48
18527;BME280;9393;42.158;24.748;2023-02-21T05:38:54;99726.41;;;12.35;37.18
18527;BME280;9393;42.158;24.748;2023-02-21T05:41:59;99724.25;;;12.31;37.49
18527;BME280;9393;42.158;24.748;2023-02-21T05:45:03;99717.50;;;12.46;37.26
18527;BME280;9393;42.158;24.748;2023-02-21T05:48:08;99727.31;;;12.61;37.25
18527;BME280;9393;42.158;24.748;2023-02-21T05:51:12;99728.28;;;12.43;37.57
18527;BME280;9393;42.158;24.748;2023-02-21T05:54:18;99735.59;;;12.57;37.63
18527;BME280;9393;42.158;24.748;2023-02-21T05:57:23;99733.19;;;12.46;37.67
18527;BME280;9393;42.158;24.748;2023-02-21T06:00:29;99741.66;;;12.57;37.49
18527;BME280;9393;42.158;24.748;2023-02-21T06:03:33;99735.75;;;12.55;37.65
18527;BME280;9393;42.158;24.748;2023-02-21T06:06:37;99736.16;;;12.15;38.24
18527;BME280;9393;42.158;24.748;2023-02-21T06:09:41;99724.69;;;12.44;37.92
18527;BME280;9393;42.158;24.748;2023-02-21T06:12:47;99724.69;;;12.44;38.02
18527;BME280;9393;42.158;24.748;2023-02-21T06:15:51;99725.78;;;12.77;37.52
18527;BME280;9393;42.158;24.748;2023-02-21T06:18:55;99733.19;;;12.81;37.63
18527;BME280;9393;42.158;24.748;2023-02-21T06:21:59;99739.13;;;13.27;37.24
18527;BME280;9393;42.158;24.748;2023-02-21T06:25:03;99747.50;;;13.56;36.68
18527;BME280;9393;42.158;24.748;2023-02-21T06:28:09;99742.75;;;13.59;36.91
18527;BME280;9393;42.158;24.748;2023-02-21T06:31:13;99732.56;;;13.82;36.52
18527;BME280;9393;42.158;24.748;2023-02-21T06:34:19;99731.94;;;13.96;36.05
18527;BME280;9393;42.158;24.748;2023-02-21T06:37:23;99733.59;;;13.97;36.23
18527;BME280;9393;42.158;24.748;2023-02-21T06:40:27;99737.41;;;14.11;36.15
18527;BME280;9393;42.158;24.748;2023-02-21T06:43:32;99726.84;;;14.37;35.94
18527;BME280;9393;42.158;24.748;2023-02-21T06:46:37;99726.06;;;14.77;35.17
18527;BME280;9393;42.158;24.748;2023-02-21T06:49:41;99715.72;;;14.83;35.18
18527;BME280;9393;42.158;24.748;2023-02-21T06:52:45;99709.84;;;14.65;35.62
18527;BME280;9393;42.158;24.748;2023-02-21T06:55:49;99720.91;;;14.27;36.19
18527;BME280;9393;42.158;24.748;2023-02-21T06:58:55;99725.38;;;14.42;36.07
18527;BME280;9393;42.158;24.748;2023-02-21T07:01:59;99726.94;;;14.19;36.48
18527;BME280;9393;42.158;24.748;2023-02-21T07:05:04;99725.72;;;13.97;37.03
18527;BME280;9393;42.158;24.748;2023-02-21T07:08:08;99726.72;;;14.04;36.92
18527;BME280;9393;42.158;24.748;2023-02-21T07:11:13;99722.94;;;14.41;36.42
18527;BME280;9393;42.158;24.748;2023-02-21T07:14:19;99705.72;;;14.46;36.49
18527;BME280;9393;42.158;24.748;2023-02-21T07:17:23;99702.28;;;14.54;36.50
18527;BME280;9393;42.158;24.748;2023-02-21T07:20:27;99706.22;;;14.58;36.59
18527;BME280;9393;42.158;24.748;2023-02-21T07:23:30;99701.59;;;14.52;36.88
18527;BME280;9393;42.158;24.748;2023-02-21T07:26:34;99693.41;;;14.63;36.79
18527;BME280;9393;42.158;24.748;2023-02-21T07:29:40;99698.00;;;14.53;37.11
18527;BME280;9393;42.158;24.748;2023-02-21T07:32:44;99690.28;;;14.76;36.99
18527;BME280;9393;42.158;24.748;2023-02-21T07:35:48;99699.81;;;14.60;37.01
18527;BME280;9393;42.158;24.748;2023-02-21T07:38:52;99693.75;;;14.68;37.00
18527;BME280;9393;42.158;24.748;2023-02-21T07:41:56;99693.75;;;14.68;36.97
18527;BME280;9393;42.158;24.748;2023-02-21T07:45:05;99689.16;;;14.78;36.55
18527;BME280;9393;42.158;24.748;2023-02-21T07:48:09;99689.13;;;14.86;36.12
18527;BME280;9393;42.158;24.748;2023-02-21T07:51:15;99690.25;;;15.08;35.62
18527;BME280;9393;42.158;24.748;2023-02-21T07:54:19;99682.56;;;15.06;35.53
18527;BME280;9393;42.158;24.748;2023-02-21T07:57:24;99683.84;;;15.27;35.27
18527;BME280;9393;42.158;24.748;2023-02-21T08:00:30;99682.34;;;15.24;35.27
18527;BME280;9393;42.158;24.748;2023-02-21T08:03:34;99670.50;;;15.36;35.23
18527;BME280;9393;42.158;24.748;2023-02-21T08:06:39;99676.22;;;15.87;34.78
18527;BME280;9393;42.158;24.748;2023-02-21T08:09:43;99681.66;;;16.39;34.13
18527;BME280;9393;42.158;24.748;2023-02-21T08:12:48;99676.63;;;16.60;33.91
18527;BME280;9393;42.158;24.748;2023-02-21T08:15:53;99680.00;;;16.69;33.85
18527;BME280;9393;42.158;24.748;2023-02-21T08:18:57;99684.81;;;17.32;32.99
18527;BME280;9393;42.158;24.748;2023-02-21T08:22:01;99677.19;;;17.51;33.03
18527;BME280;9393;42.158;24.748;2023-02-21T08:25:08;99674.84;;;17.71;32.89
18527;BME280;9393;42.158;24.748;2023-02-21T08:28:13;99665.69;;;18.03;32.32
18527;BME280;9393;42.158;24.748;2023-02-21T08:31:19;99663.19;;;18.80;31.87
18527;BME280;9393;42.158;24.748;2023-02-21T08:34:23;99656.19;;;19.62;30.92
18527;BME280;9393;42.158;24.748;2023-02-21T08:37:27;99647.69;;;19.73;30.42
18527;BME280;9393;42.158;24.748;2023-02-21T08:40:34;99649.72;;;19.64;30.92
18527;BME280;9393;42.158;24.748;2023-02-21T08:43:38;99637.75;;;19.75;30.53
18527;BME280;9393;42.158;24.748;2023-02-21T08:46:44;99637.66;;;19.55;30.32
18527;BME280;9393;42.158;24.748;2023-02-21T08:49:50;99635.28;;;19.74;30.15
18527;BME280;9393;42.158;24.748;2023-02-21T08:52:55;99629.06;;;19.47;29.74
18527;BME280;9393;42.158;24.748;2023-02-21T08:55:59;99626.09;;;19.29;29.82
18527;BME280;9393;42.158;24.748;2023-02-21T08:59:02;99618.41;;;19.34;29.77
18527;BME280;9393;42.158;24.748;2023-02-21T09:02:14;99622.63;;;19.69;29.88
18527;BME280;9393;42.158;24.748;2023-02-21T09:05:21;99622.78;;;20.22;29.06
18527;BME280;9393;42.158;24.748;2023-02-21T09:08:26;99616.31;;;20.77;28.66
18527;BME280;9393;42.158;24.748;2023-02-21T09:11:32;99614.44;;;21.17;28.03
18527;BME280;9393;42.158;24.748;2023-02-21T09:14:37;99611.38;;;20.93;28.42
18527;BME280;9393;42.158;24.748;2023-02-21T09:17:43;99606.75;;;20.49;29.00
18527;BME280;9393;42.158;24.748;2023-02-21T09:20:47;99595.06;;;20.17;29.38
18527;BME280;9393;42.158;24.748;2023-02-21T09:23:55;99594.16;;;19.71;29.72
18527;BME280;9393;42.158;24.748;2023-02-21T09:27:00;99601.97;;;19.92;29.77
18527;BME280;9393;42.158;24.748;2023-02-21T09:30:09;99586.13;;;20.25;29.24
18527;BME280;9393;42.158;24.748;2023-02-21T09:33:15;99589.00;;;20.70;29.21
18527;BME280;9393;42.158;24.748;2023-02-21T09:36:19;99582.03;;;20.88;28.82
18527;BME280;9393;42.158;24.748;2023-02-21T09:39:25;99577.06;;;21.25;28.41
18527;BME280;9393;42.158;24.748;2023-02-21T09:42:30;99585.69;;;21.00;28.64
18527;BME280;9393;42.158;24.748;2023-02-21T09:45:35;99579.06;;;21.80;27.87
18527;BME280;9393;42.158;24.748;2023-02-21T09:48:42;99577.50;;;22.35;27.23
18527;BME280;9393;42.158;24.748;2023-02-21T09:51:47;99568.75;;;22.53;27.00
18527;BME280;9393;42.158;24.748;2023-02-21T09:54:56;99558.34;;;22.02;27.23
18527;BME280;9393;42.158;24.748;2023-02-21T09:58:01;99556.03;;;21.74;27.64
18527;BME280;9393;42.158;24.748;2023-02-21T10:01:11;99544.56;;;22.11;27.30
18527;BME280;9393;42.158;24.748;2023-02-21T10:04:28;99538.25;;;22.55;26.65
18527;BME280;9393;42.158;24.748;2023-02-21T10:07:40;99528.38;;;22.20;26.21
18527;BME280;9393;42.158;24.748;2023-02-21T10:10:49;99522.19;;;22.26;26.23
18527;BME280;9393;42.158;24.748;2023-02-21T10:14:04;99510.00;;;22.61;26.04
18527;BME280;9393;42.158;24.748;2023-02-21T10:17:14;99505.91;;;22.83;25.73
18527;BME280;9393;42.158;24.748;2023-02-21T10:20:26;99502.94;;;22.73;25.71
18527;BME280;9393;42.158;24.748;2023-02-21T10:23:36;99493.97;;;22.92;25.54
18527;BME280;9393;42.158;24.748;2023-02-21T10:29:50;99482.69;;;23.08;25.64
18527;BME280;9393;42.158;24.748;2023-02-21T10:32:56;99484.50;;;22.78;25.87
18527;BME280;9393;42.158;24.748;2023-02-21T10:36:04;99469.69;;;22.46;26.04
18527;BME280;9393;42.158;24.748;2023-02-21T10:39:16;99468.50;;;22.60;26.45
18527;BME280;9393;42.158;24.748;2023-02-21T10:42:27;99472.06;;;22.90;25.93
18527;BME280;9393;42.158;24.748;2023-02-21T10:45:36;99462.09;;;23.04;25.14
18527;BME280;9393;42.158;24.748;2023-02-21T10:48:42;99453.72;;;23.19;25.18
18527;BME280;9393;42.158;24.748;2023-02-21T10:52:02;99464.16;;;23.20;25.15
18527;BME280;9393;42.158;24.748;2023-02-21T10:55:15;99461.19;;;23.10;25.46
18527;BME280;9393;42.158;24.748;2023-02-21T10:58:34;99462.91;;;23.34;25.22
18527;BME280;9393;42.158;24.748;2023-02-21T11:01:42;99451.78;;;23.26;25.45
18527;BME280;9393;42.158;24.748;2023-02-21T11:04:47;99450.50;;;23.46;24.91
18527;BME280;9393;42.158;24.748;2023-02-21T11:07:57;99435.28;;;23.77;24.67
18527;BME280;9393;42.158;24.748;2023-02-21T11:11:02;99434.28;;;24.24;24.58
18527;BME280;9393;42.158;24.748;2023-02-21T11:14:21;99422.00;;;24.46;24.62
18527;BME280;9393;42.158;24.748;2023-02-21T11:17:26;99419.75;;;24.55;23.77
18527;BME280;9393;42.158;24.748;2023-02-21T11:20:31;99405.72;;;24.71;23.90
18527;BME280;9393;42.158;24.748;2023-02-21T11:23:36;99417.66;;;24.69;23.62
18527;BME280;9393;42.158;24.748;2023-02-21T11:26:46;99407.22;;;24.67;23.75
18527;BME280;9393;42.158;24.748;2023-02-21T11:29:52;99395.69;;;24.50;23.54
18527;BME280;9393;42.158;24.748;2023-02-21T11:32:57;99393.53;;;24.24;23.75
18527;BME280;9393;42.158;24.748;2023-02-21T11:36:09;99373.94;;;24.18;24.17
18527;BME280;9393;42.158;24.748;2023-02-21T11:39:17;99367.66;;;24.01;23.95
18527;BME280;9393;42.158;24.748;2023-02-21T11:42:25;99364.53;;;24.27;23.56
18527;BME280;9393;42.158;24.748;2023-02-21T11:45:30;99363.50;;;24.28;23.20
18527;BME280;9393;42.158;24.748;2023-02-21T11:48:42;99354.25;;;24.59;23.13
18527;BME280;9393;42.158;24.748;2023-02-21T11:51:49;99354.06;;;24.49;23.19
18527;BME280;9393;42.158;24.748;2023-02-21T11:54:57;99352.34;;;24.54;22.98
18527;BME280;9393;42.158;24.748;2023-02-21T11:58:08;99324.84;;;24.54;22.25
18527;BME280;9393;42.158;24.748;2023-02-21T12:01:22;99324.75;;;24.49;22.59
18527;BME280;9393;42.158;24.748;2023-02-21T12:04:36;99325.19;;;24.57;22.42
18527;BME280;9393;42.158;24.748;2023-02-21T12:07:51;99306.16;;;24.94;22.23
18527;BME280;9393;42.158;24.748;2023-02-21T12:11:17;99313.06;;;24.78;21.87
18527;BME280;9393;42.158;24.748;2023-02-21T12:14:37;99282.69;;;24.51;22.04
18527;BME280;9393;42.158;24.748;2023-02-21T12:18:02;99283.53;;;24.68;21.46
18527;BME280;9393;42.158;24.748;2023-02-21T12:21:23;99277.09;;;24.52;21.72
18527;BME280;9393;42.158;24.748;2023-02-21T12:24:39;99267.34;;;24.58;21.68
18527;BME280;9393;42.158;24.748;2023-02-21T12:27:52;99265.03;;;24.78;21.56
18527;BME280;9393;42.158;24.748;2023-02-21T12:31:14;99257.03;;;24.61;21.24
18527;BME280;9393;42.158;24.748;2023-02-21T12:34:32;99256.72;;;24.46;21.81
18527;BME280;9393;42.158;24.748;2023-02-21T12:37:42;99252.75;;;24.77;21.58
18527;BME280;9393;42.158;24.748;2023-02-21T12:40:55;99245.56;;;24.78;20.91
18527;BME280;9393;42.158;24.748;2023-02-21T12:44:11;99254.56;;;24.88;20.42
18527;BME280;9393;42.158;24.748;2023-02-21T12:47:19;99252.41;;;24.85;20.65
18527;BME280;9393;42.158;24.748;2023-02-21T12:50:31;99244.09;;;24.70;19.95
18527;BME280;9393;42.158;24.748;2023-02-21T12:53:41;99262.28;;;24.73;20.44
18527;BME280;9393;42.158;24.748;2023-02-21T12:56:49;99260.03;;;24.65;20.39
18527;BME280;9393;42.158;24.748;2023-02-21T13:00:05;99250.75;;;24.56;20.14
18527;BME280;9393;42.158;24.748;2023-02-21T13:03:31;99245.28;;;24.62;19.97
18527;BME280;9393;42.158;24.748;2023-02-21T13:06:44;99255.94;;;24.62;20.31
18527;BME280;9393;42.158;24.748;2023-02-21T13:09:55;99243.63;;;24.45;19.81
18527;BME280;9393;42.158;24.748;2023-02-21T13:13:10;99257.03;;;24.61;19.62
18527;BME280;9393;42.158;24.748;2023-02-21T13:16:18;99248.72;;;24.46;20.30
18527;BME280;9393;42.158;24.748;2023-02-21T13:19:23;99243.06;;;24.43;20.18
18527;BME280;9393;42.158;24.748;2023-02-21T13:26:51;99230.09;;;24.35;19.85
18527;BME280;9393;42.158;24.748;2023-02-21T13:30:10;99239.19;;;24.34;19.88
18527;BME280;9393;42.158;24.748;2023-02-21T13:33:26;99228.59;;;24.39;20.18
18527;BME280;9393;42.158;24.748;2023-02-21T13:36:38;99227.56;;;24.40;19.93
18527;BME280;9393;42.158;24.748;2023-02-21T13:39:45;99230.09;;;24.35;20.72
18527;BME280;9393;42.158;24.748;2023-02-21T13:43:05;99224.19;;;24.44;20.27
18527;BME280;9393;42.158;24.748;2023-02-21T13:50:43;99218.03;;;24.16;20.78
18527;BME280;9393;42.158;24.748;2023-02-21T13:54:06;99217.00;;;24.17;20.64
18527;BME280;9393;42.158;24.748;2023-02-21T13:57:29;99213.63;;;24.09;21.15
18527;BME280;9393;42.158;24.748;2023-02-21T14:00:47;99212.06;;;23.85;21.61
18527;BME280;9393;42.158;24.748;2023-02-21T14:03:51;99210.22;;;23.86;21.29
18527;BME280;9393;42.158;24.748;2023-02-21T14:06:57;99200.56;;;23.96;21.46
18527;BME280;9393;42.158;24.748;2023-02-21T14:10:01;99195.84;;;23.87;21.64
18527;BME280;9393;42.158;24.748;2023-02-21T14:13:16;99190.63;;;23.92;21.71
18527;BME280;9393;42.158;24.748;2023-02-21T14:16:24;99184.50;;;23.91;21.22
18527;BME280;9393;42.158;24.748;2023-02-21T14:19:35;99186.47;;;23.96;21.62
18527;BME280;9393;42.158;24.748;2023-02-21T14:22:41;99186.47;;;23.96;21.47
18527;BME280;9393;42.158;24.748;2023-02-21T14:25:58;99188.59;;;23.82;21.54
18527;BME280;9393;42.158;24.748;2023-02-21T14:29:15;99180.84;;;23.69;21.35
18527;BME280;9393;42.158;24.748;2023-02-21T14:32:25;99180.59;;;23.71;21.64
18527;BME280;9393;42.158;24.748;2023-02-21T14:35:33;99184.44;;;23.63;21.61
18527;BME280;9393;42.158;24.748;2023-02-21T14:38:42;99184.09;;;23.71;21.73
18527;BME280;9393;42.158;24.748;2023-02-21T14:41:59;99176.59;;;23.45;21.76
18527;BME280;9393;42.158;24.748;2023-02-21T14:45:43;99171.63;;;23.37;21.75
18527;BME280;9393;42.158;24.748;2023-02-21T14:49:01;99178.69;;;23.20;22.16
18527;BME280;9393;42.158;24.748;2023-02-21T14:56:07;99183.31;;;23.12;22.47
18527;BME280;9393;42.158;24.748;2023-02-21T14:59:53;99183.78;;;23.09;22.87
18527;BME280;9393;42.158;24.748;2023-02-21T15:03:09;99181.78;;;22.93;23.20
18527;BME280;9393;42.158;24.748;2023-02-21T15:06:18;99184.19;;;22.83;23.04
18527;BME280;9393;42.158;24.748;2023-02-21T15:09:23;99183.47;;;22.76;23.07
18527;BME280;9393;42.158;24.748;2023-02-21T15:12:28;99185.69;;;22.68;23.48
18527;BME280;9393;42.158;24.748;2023-02-21T15:15:33;99178.56;;;22.50;23.38
18527;BME280;9393;42.158;24.748;2023-02-21T15:18:39;99179.56;;;22.37;23.67
18527;BME280;9393;42.158;24.748;2023-02-21T15:21:43;99183.34;;;22.30;24.06
18527;BME280;9393;42.158;24.748;2023-02-21T15:25:16;99178.66;;;22.13;24.32
18527;BME280;9393;42.158;24.748;2023-02-21T15:28:25;99178.00;;;22.00;24.46
18527;BME280;9393;42.158;24.748;2023-02-21T15:31:32;99180.19;;;21.91;24.42
18527;BME280;9393;42.158;24.748;2023-02-21T15:34:40;99192.91;;;21.83;24.63
18527;BME280;9393;42.158;24.748;2023-02-21T15:37:44;99189.44;;;21.64;24.80
18527;BME280;9393;42.158;24.748;2023-02-21T15:40:53;99191.00;;;21.53;24.92
18527;BME280;9393;42.158;24.748;2023-02-21T15:44:03;99196.59;;;21.45;25.06
18527;BME280;9393;42.158;24.748;2023-02-21T15:47:10;99192.97;;;21.40;25.16
18527;BME280;9393;42.158;24.748;2023-02-21T15:50:20;99198.63;;;21.25;25.29
18527;BME280;9393;42.158;24.748;2023-02-21T15:53:27;99189.84;;;21.25;25.28
18527;BME280;9393;42.158;24.748;2023-02-21T15:56:31;99182.50;;;21.27;25.23
18527;BME280;9393;42.158;24.748;2023-02-21T15:59:37;99184.47;;;21.13;25.39
18527;BME280;9393;42.158;24.748;2023-02-21T16:02:41;99192.63;;;21.11;25.43
18527;BME280;9393;42.158;24.748;2023-02-21T16:05:45;99190.50;;;20.95;25.48
18527;BME280;9393;42.158;24.748;2023-02-21T16:08:52;99191.97;;;20.91;25.86
18527;BME280;9393;42.158;24.748;2023-02-21T16:12:03;99200.03;;;20.78;25.83
18527;BME280;9393;42.158;24.748;2023-02-21T16:15:21;99197.38;;;20.78;26.04
18527;BME280;9393;42.158;24.748;2023-02-21T16:18:25;99201.03;;;20.77;25.92
18527;BME280;9393;42.158;24.748;2023-02-21T16:21:29;99198.75;;;20.56;25.77
18527;BME280;9393;42.158;24.748;2023-02-21T16:24:33;99207.97;;;20.47;25.85
18527;BME280;9393;42.158;24.748;2023-02-21T16:27:38;99211.13;;;20.62;25.39
18527;BME280;9393;42.158;24.748;2023-02-21T16:30:43;99214.19;;;20.59;25.50
18527;BME280;9393;42.158;24.748;2023-02-21T16:33:48;99225.03;;;20.57;25.44
18527;BME280;9393;42.158;24.748;2023-02-21T16:37:00;99223.41;;;20.56;25.55
18527;BME280;9393;42.158;24.748;2023-02-21T16:40:12;99228.41;;;20.40;25.44
18527;BME280;9393;42.158;24.748;2023-02-21T16:43:18;99230.41;;;20.44;25.57
18527;BME280;9393;42.158;24.748;2023-02-21T16:46:25;99230.69;;;20.23;25.61
18527;BME280;9393;42.158;24.748;2023-02-21T16:49:31;99231.47;;;20.37;25.27
18527;BME280;9393;42.158;24.748;2023-02-21T16:52:36;99230.41;;;20.38;25.29
18527;BME280;9393;42.158;24.748;2023-02-21T16:55:40;99235.56;;;20.26;25.62
18527;BME280;9393;42.158;24.748;2023-02-21T16:58:48;99245.56;;;20.17;25.49
18527;BME280;9393;42.158;24.748;2023-02-21T17:01:54;99250.47;;;20.14;25.89
18527;BME280;9393;42.158;24.748;2023-02-21T17:04:58;99253.56;;;20.04;25.89
18527;BME280;9393;42.158;24.748;2023-02-21T17:08:03;99254.59;;;20.03;26.23
18527;BME280;9393;42.158;24.748;2023-02-21T17:11:07;99256.03;;;19.93;26.49